DAL1219 MTPP-MKJP
Flight info
| Callsign | DAL1219 |
|---|---|
| Flight time | 0h 47m |
| Altitude | 24000 |
| Route | MAROT1N MAROT DCT AVALU L577 KEBET/N0417F230 DCT BADOW |
| Aircraft | A320/M-SDE3FGHIRWY/LB1 |
Departure
| Time | 2026-04-26 01:57 |
|---|---|
| Airport | Toussaint Louverture International Airport (MTPP) |
Arrival
| Time | 2026-04-26 02:45 |
|---|---|
| Airport | Norman Manley International Airport (MKJP) |
| Time | Latitude | Longitude | Altitude | Speed | Heading |
|---|---|---|---|---|---|
| 2026-04-26 01:30 | 18.57622 | -72.29507 | 95 ft | 0 kts | 192° |
| 2026-04-26 01:37 | 18.57613 | -72.29616 | 93 ft | 0 kts | 180° |
| 2026-04-26 01:40 | 18.57614 | -72.29616 | 93 ft | 0 kts | 180° |
| 2026-04-26 01:44 | 18.57616 | -72.29616 | 93 ft | 2 kts | 179° |
| 2026-04-26 01:44 | 18.57633 | -72.29618 | 93 ft | 3 kts | 154° |
| 2026-04-26 01:45 | 18.57646 | -72.29629 | 93 ft | 3 kts | 109° |
| 2026-04-26 01:45 | 18.57649 | -72.29646 | 93 ft | 1 kts | 87° |
| 2026-04-26 01:45 | 18.57649 | -72.29651 | 93 ft | 0 kts | 87° |
| 2026-04-26 01:49 | 18.57651 | -72.29632 | 93 ft | 4 kts | 83° |
| 2026-04-26 01:49 | 18.57661 | -72.29588 | 93 ft | 8 kts | 73° |
| 2026-04-26 01:49 | 18.57673 | -72.29521 | 97 ft | 10 kts | 82° |
| 2026-04-26 01:50 | 18.57696 | -72.29483 | 95 ft | 3 kts | 49° |
| 2026-04-26 01:50 | 18.57714 | -72.29466 | 95 ft | 8 kts | 35° |
| 2026-04-26 01:50 | 18.57779 | -72.29460 | 95 ft | 12 kts | 357° |
| 2026-04-26 01:50 | 18.57868 | -72.29464 | 96 ft | 12 kts | 357° |
| 2026-04-26 01:51 | 18.57890 | -72.29465 | 95 ft | 0 kts | 356° |
| 2026-04-26 01:52 | 18.57893 | -72.29465 | 95 ft | 3 kts | 356° |
| 2026-04-26 01:53 | 18.57939 | -72.29466 | 94 ft | 8 kts | 4° |
| 2026-04-26 01:53 | 18.57988 | -72.29429 | 96 ft | 11 kts | 64° |
| 2026-04-26 01:53 | 18.58000 | -72.29345 | 96 ft | 14 kts | 86° |
| 2026-04-26 01:53 | 18.58006 | -72.29211 | 97 ft | 22 kts | 87° |
| 2026-04-26 01:54 | 18.58015 | -72.29047 | 101 ft | 22 kts | 87° |
| 2026-04-26 01:54 | 18.58023 | -72.28888 | 104 ft | 22 kts | 87° |
| 2026-04-26 01:54 | 18.58031 | -72.28730 | 104 ft | 22 kts | 86° |
| 2026-04-26 01:54 | 18.58039 | -72.28571 | 109 ft | 21 kts | 87° |
| 2026-04-26 01:55 | 18.58047 | -72.28410 | 111 ft | 22 kts | 86° |
| 2026-04-26 01:55 | 18.58056 | -72.28236 | 114 ft | 25 kts | 86° |
| 2026-04-26 01:55 | 18.58064 | -72.28060 | 117 ft | 23 kts | 87° |
| 2026-04-26 01:55 | 18.58053 | -72.27901 | 119 ft | 18 kts | 103° |
| 2026-04-26 01:56 | 18.58071 | -72.27846 | 118 ft | 5 kts | 332° |
| 2026-04-26 01:56 | 18.58075 | -72.27872 | 115 ft | 5 kts | 266° |
| 2026-04-26 01:56 | 18.58075 | -72.27873 | 119 ft | 0 kts | 266° |
| 2026-04-26 01:56 | 18.58075 | -72.27878 | 117 ft | 5 kts | 266° |
| 2026-04-26 01:57 | 18.58061 | -72.28153 | 115 ft | 81 kts | 267° |
| 2026-04-26 01:57 | 18.58016 | -72.29044 | 101 ft | 158 kts | 266° |
| 2026-04-26 01:57 | 18.57944 | -72.30346 | 534 ft | 184 kts | 268° |
| 2026-04-26 01:57 | 18.57872 | -72.31672 | 1614 ft | 179 kts | 268° |
| 2026-04-26 01:58 | 18.57808 | -72.32975 | 2381 ft | 184 kts | 265° |
| 2026-04-26 01:58 | 18.57742 | -72.34418 | 2581 ft | 210 kts | 267° |
| 2026-04-26 01:58 | 18.57762 | -72.36023 | 2909 ft | 230 kts | 275° |
| 2026-04-26 01:58 | 18.57958 | -72.37784 | 3279 ft | 252 kts | 278° |
| 2026-04-26 01:59 | 18.58252 | -72.39631 | 4080 ft | 258 kts | 279° |
| 2026-04-26 01:59 | 18.58560 | -72.41529 | 4822 ft | 268 kts | 278° |
| 2026-04-26 01:59 | 18.58874 | -72.43485 | 5633 ft | 272 kts | 279° |
| 2026-04-26 01:59 | 18.59180 | -72.45469 | 6430 ft | 278 kts | 279° |
| 2026-04-26 02:00 | 18.59482 | -72.47488 | 7260 ft | 279 kts | 278° |
| 2026-04-26 02:00 | 18.59781 | -72.49541 | 8107 ft | 284 kts | 278° |
| 2026-04-26 02:00 | 18.60070 | -72.51564 | 8906 ft | 283 kts | 278° |
| 2026-04-26 02:00 | 18.60377 | -72.53635 | 9601 ft | 288 kts | 279° |
| 2026-04-26 02:01 | 18.60679 | -72.55738 | 10284 ft | 294 kts | 278° |
| 2026-04-26 02:01 | 18.60980 | -72.57948 | 10596 ft | 314 kts | 277° |
| 2026-04-26 02:01 | 18.61089 | -72.60309 | 10886 ft | 332 kts | 266° |
| 2026-04-26 02:01 | 18.60688 | -72.62743 | 11354 ft | 343 kts | 254° |
| 2026-04-26 02:02 | 18.59822 | -72.65102 | 12023 ft | 347 kts | 247° |
| 2026-04-26 02:02 | 18.58880 | -72.67449 | 12746 ft | 348 kts | 248° |
| 2026-04-26 02:02 | 18.57959 | -72.69815 | 13475 ft | 350 kts | 248° |
| 2026-04-26 02:02 | 18.57044 | -72.72201 | 14136 ft | 352 kts | 248° |
| 2026-04-26 02:03 | 18.56123 | -72.74602 | 14804 ft | 355 kts | 248° |
| 2026-04-26 02:03 | 18.55176 | -72.77001 | 15429 ft | 356 kts | 247° |
| 2026-04-26 02:03 | 18.54205 | -72.79428 | 15950 ft | 363 kts | 248° |
| 2026-04-26 02:03 | 18.53219 | -72.81885 | 16555 ft | 365 kts | 247° |
| 2026-04-26 02:04 | 18.52229 | -72.84358 | 17149 ft | 367 kts | 247° |
| 2026-04-26 02:04 | 18.51236 | -72.86849 | 17725 ft | 370 kts | 247° |
| 2026-04-26 02:04 | 18.50243 | -72.89362 | 18297 ft | 372 kts | 248° |
| 2026-04-26 02:04 | 18.49485 | -72.91975 | 18848 ft | 375 kts | 258° |
| 2026-04-26 02:05 | 18.49125 | -72.94703 | 19404 ft | 377 kts | 263° |
| 2026-04-26 02:05 | 18.48830 | -72.97457 | 19949 ft | 380 kts | 263° |
| 2026-04-26 02:05 | 18.48521 | -73.00223 | 20493 ft | 381 kts | 263° |
| 2026-04-26 02:05 | 18.48204 | -73.03007 | 21004 ft | 384 kts | 263° |
| 2026-04-26 02:06 | 18.47884 | -73.05798 | 21512 ft | 386 kts | 263° |
| 2026-04-26 02:06 | 18.47559 | -73.08614 | 21992 ft | 388 kts | 263° |
| 2026-04-26 02:06 | 18.47235 | -73.11447 | 22462 ft | 390 kts | 263° |
| 2026-04-26 02:06 | 18.46910 | -73.14291 | 22914 ft | 392 kts | 263° |
| 2026-04-26 02:07 | 18.46585 | -73.17144 | 23347 ft | 394 kts | 264° |
| 2026-04-26 02:07 | 18.46258 | -73.20024 | 23758 ft | 396 kts | 264° |
| 2026-04-26 02:07 | 18.45930 | -73.22910 | 23911 ft | 396 kts | 264° |
| 2026-04-26 02:07 | 18.45604 | -73.25777 | 23939 ft | 394 kts | 264° |
| 2026-04-26 02:08 | 18.45273 | -73.28636 | 23938 ft | 392 kts | 263° |
| 2026-04-26 02:08 | 18.44901 | -73.31480 | 23941 ft | 392 kts | 262° |
| 2026-04-26 02:08 | 18.44490 | -73.34320 | 23943 ft | 393 kts | 262° |
| 2026-04-26 02:08 | 18.44059 | -73.37158 | 23944 ft | 393 kts | 262° |
| 2026-04-26 02:09 | 18.43626 | -73.39997 | 23937 ft | 392 kts | 262° |
| 2026-04-26 02:09 | 18.43200 | -73.42838 | 23940 ft | 393 kts | 262° |
| 2026-04-26 02:09 | 18.42786 | -73.45678 | 23941 ft | 392 kts | 262° |
| 2026-04-26 02:09 | 18.42375 | -73.48512 | 23940 ft | 392 kts | 262° |
| 2026-04-26 02:10 | 18.41962 | -73.51355 | 23942 ft | 393 kts | 262° |
| 2026-04-26 02:10 | 18.41549 | -73.54195 | 23942 ft | 393 kts | 262° |
| 2026-04-26 02:10 | 18.41139 | -73.57006 | 23943 ft | 393 kts | 262° |
| 2026-04-26 02:10 | 18.40728 | -73.59853 | 23938 ft | 393 kts | 262° |
| 2026-04-26 02:11 | 18.40320 | -73.62691 | 23943 ft | 393 kts | 262° |
| 2026-04-26 02:11 | 18.39906 | -73.65536 | 23944 ft | 393 kts | 262° |
| 2026-04-26 02:11 | 18.39493 | -73.68375 | 23951 ft | 393 kts | 262° |
| 2026-04-26 02:11 | 18.39080 | -73.71216 | 23955 ft | 392 kts | 262° |
| 2026-04-26 02:12 | 18.38664 | -73.74059 | 23956 ft | 392 kts | 262° |
| 2026-04-26 02:12 | 18.38245 | -73.76892 | 23950 ft | 392 kts | 262° |
| 2026-04-26 02:12 | 18.37827 | -73.79729 | 23956 ft | 392 kts | 262° |
| 2026-04-26 02:12 | 18.37412 | -73.82564 | 23958 ft | 392 kts | 262° |
| 2026-04-26 02:13 | 18.36998 | -73.85402 | 23951 ft | 392 kts | 262° |
| 2026-04-26 02:13 | 18.36585 | -73.88242 | 23956 ft | 392 kts | 263° |
| 2026-04-26 02:13 | 18.36170 | -73.91079 | 23953 ft | 392 kts | 262° |
| 2026-04-26 02:13 | 18.35753 | -73.93915 | 23952 ft | 392 kts | 262° |
| 2026-04-26 02:14 | 18.35334 | -73.96749 | 23943 ft | 392 kts | 262° |
| 2026-04-26 02:14 | 18.34913 | -73.99586 | 23949 ft | 392 kts | 262° |
| 2026-04-26 02:14 | 18.34491 | -74.02421 | 23949 ft | 392 kts | 262° |
| 2026-04-26 02:14 | 18.34072 | -74.05251 | 23949 ft | 392 kts | 262° |
| 2026-04-26 02:15 | 18.33655 | -74.08083 | 23947 ft | 392 kts | 262° |
| 2026-04-26 02:15 | 18.33240 | -74.10914 | 23951 ft | 392 kts | 262° |
| 2026-04-26 02:15 | 18.32823 | -74.13748 | 23952 ft | 392 kts | 262° |
| 2026-04-26 02:15 | 18.32406 | -74.16583 | 23953 ft | 392 kts | 262° |
| 2026-04-26 02:16 | 18.31986 | -74.19417 | 23953 ft | 392 kts | 262° |
| 2026-04-26 02:16 | 18.31566 | -74.22248 | 23952 ft | 392 kts | 262° |
| 2026-04-26 02:16 | 18.31143 | -74.25075 | 23950 ft | 391 kts | 262° |
| 2026-04-26 02:16 | 18.30721 | -74.27905 | 23952 ft | 391 kts | 262° |
| 2026-04-26 02:17 | 18.30301 | -74.30732 | 23946 ft | 391 kts | 262° |
| 2026-04-26 02:17 | 18.29882 | -74.33563 | 23950 ft | 391 kts | 262° |
| 2026-04-26 02:17 | 18.29462 | -74.36389 | 23943 ft | 391 kts | 262° |
| 2026-04-26 02:17 | 18.29044 | -74.39216 | 23948 ft | 391 kts | 262° |
| 2026-04-26 02:18 | 18.28632 | -74.42005 | 23955 ft | 391 kts | 262° |
| 2026-04-26 02:18 | 18.28211 | -74.44831 | 23945 ft | 391 kts | 262° |
| 2026-04-26 02:18 | 18.27787 | -74.47655 | 23955 ft | 391 kts | 262° |
| 2026-04-26 02:18 | 18.27362 | -74.50479 | 23949 ft | 391 kts | 262° |
| 2026-04-26 02:19 | 18.26938 | -74.53302 | 23953 ft | 391 kts | 262° |
| 2026-04-26 02:19 | 18.26514 | -74.56124 | 23942 ft | 391 kts | 262° |
| 2026-04-26 02:19 | 18.26086 | -74.58949 | 23954 ft | 391 kts | 262° |
| 2026-04-26 02:19 | 18.25658 | -74.61773 | 23954 ft | 391 kts | 262° |
| 2026-04-26 02:20 | 18.25235 | -74.64599 | 23953 ft | 391 kts | 262° |
| 2026-04-26 02:20 | 18.24631 | -74.67387 | 23945 ft | 392 kts | 254° |
| 2026-04-26 02:20 | 18.23794 | -74.70118 | 23946 ft | 392 kts | 254° |
| 2026-04-26 02:20 | 18.22958 | -74.72845 | 23946 ft | 392 kts | 254° |
| 2026-04-26 02:21 | 18.22121 | -74.75575 | 23940 ft | 392 kts | 254° |
| 2026-04-26 02:21 | 18.21281 | -74.78301 | 23942 ft | 392 kts | 254° |
| 2026-04-26 02:21 | 18.20440 | -74.81027 | 23941 ft | 392 kts | 254° |
| 2026-04-26 02:21 | 18.19602 | -74.83751 | 23941 ft | 392 kts | 254° |
| 2026-04-26 02:22 | 18.18765 | -74.86475 | 23936 ft | 392 kts | 254° |
| 2026-04-26 02:22 | 18.17926 | -74.89205 | 23937 ft | 392 kts | 254° |
| 2026-04-26 02:22 | 18.17086 | -74.91929 | 23932 ft | 392 kts | 254° |
| 2026-04-26 02:22 | 18.16245 | -74.94655 | 23932 ft | 392 kts | 254° |
| 2026-04-26 02:23 | 18.15409 | -74.97382 | 23933 ft | 392 kts | 254° |
| 2026-04-26 02:23 | 18.14570 | -75.00110 | 23936 ft | 392 kts | 254° |
| 2026-04-26 02:23 | 18.13729 | -75.02839 | 23930 ft | 392 kts | 254° |
| 2026-04-26 02:23 | 18.12887 | -75.05567 | 23931 ft | 392 kts | 254° |
| 2026-04-26 02:24 | 18.12043 | -75.08296 | 23936 ft | 392 kts | 254° |
| 2026-04-26 02:24 | 18.11204 | -75.11021 | 23933 ft | 392 kts | 254° |
| 2026-04-26 02:24 | 18.10365 | -75.13749 | 23934 ft | 392 kts | 254° |
| 2026-04-26 02:24 | 18.09520 | -75.16476 | 23935 ft | 392 kts | 254° |
| 2026-04-26 02:25 | 18.08674 | -75.19203 | 23928 ft | 393 kts | 254° |
| 2026-04-26 02:25 | 18.07823 | -75.21933 | 23935 ft | 393 kts | 254° |
| 2026-04-26 02:25 | 18.06976 | -75.24663 | 23939 ft | 393 kts | 254° |
| 2026-04-26 02:25 | 18.06132 | -75.27393 | 23941 ft | 393 kts | 254° |
| 2026-04-26 02:26 | 18.05288 | -75.30126 | 23942 ft | 393 kts | 254° |
| 2026-04-26 02:26 | 18.04442 | -75.32853 | 23941 ft | 393 kts | 254° |
| 2026-04-26 02:26 | 18.03592 | -75.35583 | 23897 ft | 392 kts | 254° |
| 2026-04-26 02:26 | 18.02755 | -75.38273 | 23646 ft | 385 kts | 254° |
| 2026-04-26 02:27 | 18.01926 | -75.40937 | 23391 ft | 382 kts | 254° |
| 2026-04-26 02:27 | 18.01101 | -75.43584 | 23139 ft | 381 kts | 254° |
| 2026-04-26 02:27 | 18.00281 | -75.46223 | 22881 ft | 380 kts | 254° |
| 2026-04-26 02:27 | 17.99463 | -75.48855 | 22637 ft | 379 kts | 253° |
| 2026-04-26 02:28 | 17.98645 | -75.51484 | 22385 ft | 379 kts | 253° |
| 2026-04-26 02:28 | 17.97827 | -75.54110 | 22138 ft | 378 kts | 253° |
| 2026-04-26 02:28 | 17.97012 | -75.56735 | 21885 ft | 377 kts | 253° |
| 2026-04-26 02:28 | 17.96199 | -75.59349 | 21635 ft | 376 kts | 253° |
| 2026-04-26 02:29 | 17.95382 | -75.61958 | 21385 ft | 375 kts | 253° |
| 2026-04-26 02:29 | 17.94569 | -75.64556 | 21137 ft | 373 kts | 253° |
| 2026-04-26 02:29 | 17.93767 | -75.67127 | 20848 ft | 368 kts | 253° |
| 2026-04-26 02:29 | 17.92975 | -75.69662 | 20413 ft | 363 kts | 253° |
| 2026-04-26 02:30 | 17.92190 | -75.72173 | 19954 ft | 360 kts | 253° |
| 2026-04-26 02:30 | 17.91411 | -75.74660 | 19496 ft | 357 kts | 252° |
| 2026-04-26 02:30 | 17.90638 | -75.77126 | 19027 ft | 354 kts | 252° |
| 2026-04-26 02:30 | 17.89869 | -75.79574 | 18569 ft | 352 kts | 252° |
| 2026-04-26 02:31 | 17.89106 | -75.82004 | 18108 ft | 350 kts | 252° |
| 2026-04-26 02:31 | 17.88346 | -75.84423 | 17639 ft | 348 kts | 252° |
| 2026-04-26 02:31 | 17.87593 | -75.86827 | 17191 ft | 346 kts | 252° |
| 2026-04-26 02:31 | 17.86848 | -75.89205 | 16815 ft | 342 kts | 252° |
| 2026-04-26 02:32 | 17.86106 | -75.91570 | 16367 ft | 340 kts | 252° |
| 2026-04-26 02:32 | 17.85367 | -75.93921 | 15921 ft | 339 kts | 252° |
| 2026-04-26 02:32 | 17.84634 | -75.96262 | 15471 ft | 338 kts | 252° |
| 2026-04-26 02:32 | 17.83900 | -75.98597 | 15026 ft | 336 kts | 251° |
| 2026-04-26 02:33 | 17.83169 | -76.00922 | 14583 ft | 335 kts | 251° |
| 2026-04-26 02:33 | 17.82440 | -76.03242 | 14130 ft | 334 kts | 251° |
| 2026-04-26 02:33 | 17.81713 | -76.05547 | 13684 ft | 332 kts | 251° |
| 2026-04-26 02:33 | 17.80990 | -76.07840 | 13240 ft | 331 kts | 251° |
| 2026-04-26 02:34 | 17.80267 | -76.10129 | 12770 ft | 329 kts | 251° |
| 2026-04-26 02:34 | 17.79556 | -76.12375 | 12323 ft | 328 kts | 251° |
| 2026-04-26 02:34 | 17.78842 | -76.14643 | 11861 ft | 327 kts | 251° |
| 2026-04-26 02:34 | 17.78130 | -76.16900 | 11398 ft | 325 kts | 251° |
| 2026-04-26 02:35 | 17.77413 | -76.19174 | 10917 ft | 324 kts | 251° |
| 2026-04-26 02:35 | 17.76716 | -76.21387 | 10489 ft | 321 kts | 251° |
| 2026-04-26 02:35 | 17.76029 | -76.23570 | 10359 ft | 309 kts | 252° |
| 2026-04-26 02:35 | 17.75366 | -76.25673 | 10224 ft | 299 kts | 251° |
| 2026-04-26 02:36 | 17.74719 | -76.27721 | 9995 ft | 291 kts | 251° |
| 2026-04-26 02:36 | 17.74178 | -76.29761 | 9863 ft | 291 kts | 262° |
| 2026-04-26 02:36 | 17.74152 | -76.31878 | 9606 ft | 292 kts | 277° |
| 2026-04-26 02:36 | 17.74710 | -76.33909 | 9224 ft | 290 kts | 294° |
| 2026-04-26 02:37 | 17.75587 | -76.35811 | 8819 ft | 289 kts | 295° |
| 2026-04-26 02:37 | 17.76165 | -76.37068 | 8554 ft | 289 kts | 295° |
| 2026-04-26 02:37 | 17.77028 | -76.38964 | 8155 ft | 287 kts | 295° |
| 2026-04-26 02:37 | 17.77882 | -76.40853 | 7751 ft | 286 kts | 294° |
| 2026-04-26 02:38 | 17.78727 | -76.42731 | 7353 ft | 284 kts | 294° |
| 2026-04-26 02:38 | 17.79568 | -76.44596 | 6958 ft | 282 kts | 294° |
| 2026-04-26 02:38 | 17.80405 | -76.46450 | 6565 ft | 280 kts | 294° |
| 2026-04-26 02:38 | 17.81236 | -76.48293 | 6176 ft | 278 kts | 294° |
| 2026-04-26 02:39 | 17.82060 | -76.50120 | 5785 ft | 276 kts | 294° |
| 2026-04-26 02:39 | 17.82875 | -76.51935 | 5395 ft | 273 kts | 294° |
| 2026-04-26 02:39 | 17.83673 | -76.53702 | 5022 ft | 261 kts | 294° |
| 2026-04-26 02:39 | 17.84438 | -76.55385 | 4666 ft | 249 kts | 294° |
| 2026-04-26 02:40 | 17.85159 | -76.56987 | 4331 ft | 238 kts | 293° |
| 2026-04-26 02:40 | 17.85793 | -76.58550 | 4002 ft | 228 kts | 291° |
| 2026-04-26 02:40 | 17.86372 | -76.60060 | 3691 ft | 219 kts | 290° |
| 2026-04-26 02:40 | 17.86927 | -76.61514 | 3395 ft | 210 kts | 290° |
| 2026-04-26 02:41 | 17.87456 | -76.62899 | 3136 ft | 199 kts | 290° |
| 2026-04-26 02:41 | 17.87960 | -76.64215 | 2828 ft | 189 kts | 290° |
| 2026-04-26 02:41 | 17.88443 | -76.65470 | 2572 ft | 182 kts | 290° |
| 2026-04-26 02:41 | 17.88894 | -76.66638 | 2346 ft | 164 kts | 290° |
| 2026-04-26 02:42 | 17.89308 | -76.67706 | 2117 ft | 153 kts | 290° |
| 2026-04-26 02:42 | 17.89701 | -76.68724 | 1899 ft | 149 kts | 290° |
| 2026-04-26 02:42 | 17.90086 | -76.69723 | 1709 ft | 147 kts | 290° |
| 2026-04-26 02:42 | 17.90467 | -76.70714 | 1502 ft | 146 kts | 290° |
| 2026-04-26 02:43 | 17.91224 | -76.72684 | 1098 ft | 145 kts | 290° |
| 2026-04-26 02:43 | 17.91602 | -76.73663 | 903 ft | 145 kts | 290° |
| 2026-04-26 02:43 | 17.91980 | -76.74641 | 711 ft | 145 kts | 290° |
| 2026-04-26 02:44 | 17.92359 | -76.75618 | 487 ft | 144 kts | 291° |
| 2026-04-26 02:44 | 17.92736 | -76.76589 | 278 ft | 143 kts | 291° |
| 2026-04-26 02:44 | 17.93112 | -76.77556 | 61 ft | 142 kts | 291° |
| 2026-04-26 02:44 | 17.93443 | -76.78429 | 17 ft | 97 kts | 292° |
| 2026-04-26 02:45 | 17.93592 | -76.78816 | 14 ft | 35 kts | 292° |
| 2026-04-26 02:45 | 17.93680 | -76.79049 | 16 ft | 34 kts | 291° |
| 2026-04-26 02:45 | 17.93793 | -76.79194 | 15 ft | 13 kts | 321° |
| 2026-04-26 02:45 | 17.93825 | -76.79221 | 15 ft | 0 kts | 323° |
| 2026-04-26 02:46 | 17.93835 | -76.79228 | 14 ft | 4 kts | 326° |
| 2026-04-26 02:46 | 17.93881 | -76.79227 | 14 ft | 8 kts | 28° |
| 2026-04-26 02:46 | 17.93893 | -76.79181 | 14 ft | 8 kts | 99° |
| 2026-04-26 02:47 | 17.93859 | -76.79083 | 16 ft | 17 kts | 111° |
| 2026-04-26 02:47 | 17.93813 | -76.78963 | 15 ft | 18 kts | 111° |
| 2026-04-26 02:47 | 17.93762 | -76.78831 | 15 ft | 20 kts | 113° |
| 2026-04-26 02:47 | 17.93706 | -76.78689 | 16 ft | 22 kts | 112° |
| 2026-04-26 02:48 | 17.93649 | -76.78542 | 16 ft | 20 kts | 112° |
| 2026-04-26 02:48 | 17.93594 | -76.78400 | 17 ft | 22 kts | 112° |
| 2026-04-26 02:48 | 17.93538 | -76.78254 | 18 ft | 19 kts | 113° |
| 2026-04-26 02:48 | 17.93531 | -76.78170 | 20 ft | 10 kts | 52° |
| 2026-04-26 02:49 | 17.93591 | -76.78135 | 18 ft | 9 kts | 21° |
| 2026-04-26 02:49 | 17.93646 | -76.78113 | 18 ft | 8 kts | 21° |
| 2026-04-26 02:49 | 17.93675 | -76.78093 | 18 ft | 2 kts | 65° |
| 2026-04-26 02:49 | 17.93679 | -76.78082 | 18 ft | 2 kts | 76° |
| 2026-04-26 02:50 | 17.93674 | -76.78057 | 18 ft | 3 kts | 111° |
| 2026-04-26 02:50 | 17.93667 | -76.78037 | 18 ft | 2 kts | 112° |
| 2026-04-26 02:50 | 17.93663 | -76.78029 | 18 ft | 0 kts | 112° |